sensor_id;sensor_type;location;lat;lon;timestamp;temperature;humidity
30288;DHT22;17103;48.316;11.558;2022-08-30T00:02:25;24.80;43.50
30288;DHT22;17103;48.316;11.558;2022-08-30T00:04:57;24.50;43.30
30288;DHT22;17103;48.316;11.558;2022-08-30T00:07:27;25.00;43.90
30288;DHT22;17103;48.316;11.558;2022-08-30T00:10:05;24.50;43.40
30288;DHT22;17103;48.316;11.558;2022-08-30T00:12:42;24.70;43.80
30288;DHT22;17103;48.316;11.558;2022-08-30T00:15:15;24.70;43.60
30288;DHT22;17103;48.316;11.558;2022-08-30T00:17:42;24.70;43.90
30288;DHT22;17103;48.316;11.558;2022-08-30T00:20:35;24.70;43.80
30288;DHT22;17103;48.316;11.558;2022-08-30T00:23:26;24.50;43.90
30288;DHT22;17103;48.316;11.558;2022-08-30T00:26:00;24.60;43.90
30288;DHT22;17103;48.316;11.558;2022-08-30T00:28:37;24.60;43.80
30288;DHT22;17103;48.316;11.558;2022-08-30T00:31:06;24.60;44.00
30288;DHT22;17103;48.316;11.558;2022-08-30T00:33:34;24.60;44.00
30288;DHT22;17103;48.316;11.558;2022-08-30T00:39:12;24.50;44.30
30288;DHT22;17103;48.316;11.558;2022-08-30T00:41:43;24.60;44.10
30288;DHT22;17103;48.316;11.558;2022-08-30T00:44:30;24.30;44.10
30288;DHT22;17103;48.316;11.558;2022-08-30T00:50:05;24.50;44.50
30288;DHT22;17103;48.316;11.558;2022-08-30T00:52:34;24.40;44.10
30288;DHT22;17103;48.316;11.558;2022-08-30T00:55:07;24.40;44.20
30288;DHT22;17103;48.316;11.558;2022-08-30T00:57:44;24.30;44.40
30288;DHT22;17103;48.316;11.558;2022-08-30T01:00:26;24.30;44.40
30288;DHT22;17103;48.316;11.558;2022-08-30T01:03:04;24.30;44.40
30288;DHT22;17103;48.316;11.558;2022-08-30T01:06:16;24.10;44.30
30288;DHT22;17103;48.316;11.558;2022-08-30T01:09:08;24.50;44.80
30288;DHT22;17103;48.316;11.558;2022-08-30T01:11:46;23.90;44.40
30288;DHT22;17103;48.316;11.558;2022-08-30T01:14:39;24.10;44.50
30288;DHT22;17103;48.316;11.558;2022-08-30T01:17:12;24.20;44.70
30288;DHT22;17103;48.316;11.558;2022-08-30T01:20:12;24.10;44.40
30288;DHT22;17103;48.316;11.558;2022-08-30T01:25:51;24.10;44.70
30288;DHT22;17103;48.316;11.558;2022-08-30T01:28:34;23.90;44.60
30288;DHT22;17103;48.316;11.558;2022-08-30T01:31:03;24.50;45.10
30288;DHT22;17103;48.316;11.558;2022-08-30T01:33:31;24.00;44.80
30288;DHT22;17103;48.316;11.558;2022-08-30T01:36:13;24.00;44.80
30288;DHT22;17103;48.316;11.558;2022-08-30T01:38:48;23.90;45.00
30288;DHT22;17103;48.316;11.558;2022-08-30T01:41:20;24.10;45.10
30288;DHT22;17103;48.316;11.558;2022-08-30T01:43:50;23.90;45.00
30288;DHT22;17103;48.316;11.558;2022-08-30T01:46:27;23.90;45.00
30288;DHT22;17103;48.316;11.558;2022-08-30T01:48:57;23.90;45.10
30288;DHT22;17103;48.316;11.558;2022-08-30T01:51:32;23.90;45.00
30288;DHT22;17103;48.316;11.558;2022-08-30T01:54:07;23.60;44.90
30288;DHT22;17103;48.316;11.558;2022-08-30T01:56:36;23.70;44.80
30288;DHT22;17103;48.316;11.558;2022-08-30T01:59:08;23.80;44.90
30288;DHT22;17103;48.316;11.558;2022-08-30T02:01:37;23.80;45.00
30288;DHT22;17103;48.316;11.558;2022-08-30T02:04:11;23.70;45.00
30288;DHT22;17103;48.316;11.558;2022-08-30T02:07:03;24.00;45.30
30288;DHT22;17103;48.316;11.558;2022-08-30T02:09:41;23.70;45.30
30288;DHT22;17103;48.316;11.558;2022-08-30T02:12:13;24.20;45.40
30288;DHT22;17103;48.316;11.558;2022-08-30T02:14:44;23.70;45.20
30288;DHT22;17103;48.316;11.558;2022-08-30T02:17:22;24.20;45.60
30288;DHT22;17103;48.316;11.558;2022-08-30T02:19:48;23.60;45.80
30288;DHT22;17103;48.316;11.558;2022-08-30T02:22:19;23.60;45.10
30288;DHT22;17103;48.316;11.558;2022-08-30T02:24:56;24.00;45.60
30288;DHT22;17103;48.316;11.558;2022-08-30T02:27:26;23.80;45.40
30288;DHT22;17103;48.316;11.558;2022-08-30T02:30:19;23.20;45.00
30288;DHT22;17103;48.316;11.558;2022-08-30T02:33:18;23.60;45.50
30288;DHT22;17103;48.316;11.558;2022-08-30T02:35:55;23.40;45.10
30288;DHT22;17103;48.316;11.558;2022-08-30T02:38:48;23.60;45.40
30288;DHT22;17103;48.316;11.558;2022-08-30T02:41:29;23.50;45.20
30288;DHT22;17103;48.316;11.558;2022-08-30T02:44:12;23.40;45.30
30288;DHT22;17103;48.316;11.558;2022-08-30T02:46:39;23.50;45.50
30288;DHT22;17103;48.316;11.558;2022-08-30T02:49:10;23.50;45.30
30288;DHT22;17103;48.316;11.558;2022-08-30T02:51:41;23.40;45.50
30288;DHT22;17103;48.316;11.558;2022-08-30T02:54:18;23.20;45.40
30288;DHT22;17103;48.316;11.558;2022-08-30T02:57:07;23.40;45.60
30288;DHT22;17103;48.316;11.558;2022-08-30T02:59:48;23.20;45.40
30288;DHT22;17103;48.316;11.558;2022-08-30T03:02:22;23.40;45.50
30288;DHT22;17103;48.316;11.558;2022-08-30T03:05:07;23.40;45.60
30288;DHT22;17103;48.316;11.558;2022-08-30T03:07:42;23.40;45.70
30288;DHT22;17103;48.316;11.558;2022-08-30T03:10:17;23.50;45.80
30288;DHT22;17103;48.316;11.558;2022-08-30T03:12:55;22.90;45.10
30288;DHT22;17103;48.316;11.558;2022-08-30T03:15:43;23.50;45.60
30288;DHT22;17103;48.316;11.558;2022-08-30T03:18:22;23.10;45.50
30288;DHT22;17103;48.316;11.558;2022-08-30T03:20:56;23.20;45.40
30288;DHT22;17103;48.316;11.558;2022-08-30T03:23:40;23.20;45.40
30288;DHT22;17103;48.316;11.558;2022-08-30T03:26:10;23.20;45.60
30288;DHT22;17103;48.316;11.558;2022-08-30T03:28:48;23.00;45.30
30288;DHT22;17103;48.316;11.558;2022-08-30T03:31:26;23.50;45.80
30288;DHT22;17103;48.316;11.558;2022-08-30T03:34:02;23.10;45.60
30288;DHT22;17103;48.316;11.558;2022-08-30T03:36:36;23.20;45.70
30288;DHT22;17103;48.316;11.558;2022-08-30T03:39:16;23.20;45.60
30288;DHT22;17103;48.316;11.558;2022-08-30T03:41:51;23.60;46.10
30288;DHT22;17103;48.316;11.558;2022-08-30T03:44:21;23.30;45.90
30288;DHT22;17103;48.316;11.558;2022-08-30T03:46:52;23.40;46.00
30288;DHT22;17103;48.316;11.558;2022-08-30T03:49:27;23.10;45.80
30288;DHT22;17103;48.316;11.558;2022-08-30T03:52:12;23.10;45.80
30288;DHT22;17103;48.316;11.558;2022-08-30T03:54:39;23.00;45.70
30288;DHT22;17103;48.316;11.558;2022-08-30T03:57:27;23.40;46.20
30288;DHT22;17103;48.316;11.558;2022-08-30T04:00:04;23.10;46.10
30288;DHT22;17103;48.316;11.558;2022-08-30T04:02:39;23.00;46.00
30288;DHT22;17103;48.316;11.558;2022-08-30T04:05:29;23.00;46.10
30288;DHT22;17103;48.316;11.558;2022-08-30T04:08:06;22.90;45.90
30288;DHT22;17103;48.316;11.558;2022-08-30T04:10:40;23.10;46.20
30288;DHT22;17103;48.316;11.558;2022-08-30T04:13:14;23.00;46.10
30288;DHT22;17103;48.316;11.558;2022-08-30T04:15:50;23.00;46.10
30288;DHT22;17103;48.316;11.558;2022-08-30T04:18:25;23.00;46.20
30288;DHT22;17103;48.316;11.558;2022-08-30T04:20:57;23.00;46.20
30288;DHT22;17103;48.316;11.558;2022-08-30T04:23:36;23.00;46.10
30288;DHT22;17103;48.316;11.558;2022-08-30T04:26:08;22.80;46.10
30288;DHT22;17103;48.316;11.558;2022-08-30T04:28:40;23.00;46.20
30288;DHT22;17103;48.316;11.558;2022-08-30T04:31:28;23.00;46.20
30288;DHT22;17103;48.316;11.558;2022-08-30T04:33:57;23.00;46.30
30288;DHT22;17103;48.316;11.558;2022-08-30T04:36:40;23.00;46.10
30288;DHT22;17103;48.316;11.558;2022-08-30T04:39:08;22.90;46.10
30288;DHT22;17103;48.316;11.558;2022-08-30T04:41:43;22.80;45.80
30288;DHT22;17103;48.316;11.558;2022-08-30T04:44:14;23.00;46.10
30288;DHT22;17103;48.316;11.558;2022-08-30T04:46:41;23.20;46.20
30288;DHT22;17103;48.316;11.558;2022-08-30T04:49:09;22.50;45.70
30288;DHT22;17103;48.316;11.558;2022-08-30T04:52:07;23.20;46.30
30288;DHT22;17103;48.316;11.558;2022-08-30T04:54:35;23.60;46.80
30288;DHT22;17103;48.316;11.558;2022-08-30T04:57:05;22.80;45.90
30288;DHT22;17103;48.316;11.558;2022-08-30T04:59:31;23.40;46.40
30288;DHT22;17103;48.316;11.558;2022-08-30T05:02:03;23.00;46.10
30288;DHT22;17103;48.316;11.558;2022-08-30T05:04:46;22.90;46.10
30288;DHT22;17103;48.316;11.558;2022-08-30T05:07:31;22.90;46.10
30288;DHT22;17103;48.316;11.558;2022-08-30T05:09:57;23.30;46.40
30288;DHT22;17103;48.316;11.558;2022-08-30T05:12:30;23.00;46.20
30288;DHT22;17103;48.316;11.558;2022-08-30T05:14:58;22.90;46.20
30288;DHT22;17103;48.316;11.558;2022-08-30T05:17:30;23.10;46.40
30288;DHT22;17103;48.316;11.558;2022-08-30T05:20:01;23.20;46.50
30288;DHT22;17103;48.316;11.558;2022-08-30T05:22:31;22.90;46.50
30288;DHT22;17103;48.316;11.558;2022-08-30T05:24:58;22.90;46.50
30288;DHT22;17103;48.316;11.558;2022-08-30T05:27:26;22.90;46.70
30288;DHT22;17103;48.316;11.558;2022-08-30T05:29:52;22.90;46.70
30288;DHT22;17103;48.316;11.558;2022-08-30T05:32:17;22.80;46.70
30288;DHT22;17103;48.316;11.558;2022-08-30T05:34:43;23.50;47.30
30288;DHT22;17103;48.316;11.558;2022-08-30T05:37:12;22.90;47.00
30288;DHT22;17103;48.316;11.558;2022-08-30T05:39:43;23.40;47.60
30288;DHT22;17103;48.316;11.558;2022-08-30T05:42:09;23.00;47.40
30288;DHT22;17103;48.316;11.558;2022-08-30T05:44:37;23.00;47.40
30288;DHT22;17103;48.316;11.558;2022-08-30T05:47:09;23.30;47.60
30288;DHT22;17103;48.316;11.558;2022-08-30T05:49:37;23.00;47.70
30288;DHT22;17103;48.316;11.558;2022-08-30T05:52:06;23.50;48.40
30288;DHT22;17103;48.316;11.558;2022-08-30T05:54:31;23.50;48.50
30288;DHT22;17103;48.316;11.558;2022-08-30T05:57:08;23.10;48.30
30288;DHT22;17103;48.316;11.558;2022-08-30T05:59:37;23.10;48.80
30288;DHT22;17103;48.316;11.558;2022-08-30T06:02:20;23.30;48.80
30288;DHT22;17103;48.316;11.558;2022-08-30T06:04:48;23.30;49.00
30288;DHT22;17103;48.316;11.558;2022-08-30T06:07:23;23.60;49.00
30288;DHT22;17103;48.316;11.558;2022-08-30T06:09:57;23.30;48.80
30288;DHT22;17103;48.316;11.558;2022-08-30T06:12:27;22.90;48.50
30288;DHT22;17103;48.316;11.558;2022-08-30T06:14:56;23.30;48.80
30288;DHT22;17103;48.316;11.558;2022-08-30T06:17:29;23.40;48.90
30288;DHT22;17103;48.316;11.558;2022-08-30T06:19:57;22.90;48.70
30288;DHT22;17103;48.316;11.558;2022-08-30T06:22:25;23.50;49.10
30288;DHT22;17103;48.316;11.558;2022-08-30T06:24:53;24.00;49.50
30288;DHT22;17103;48.316;11.558;2022-08-30T06:27:25;23.60;49.10
30288;DHT22;17103;48.316;11.558;2022-08-30T06:29:58;23.60;49.00
30288;DHT22;17103;48.316;11.558;2022-08-30T06:32:38;23.70;49.00
30288;DHT22;17103;48.316;11.558;2022-08-30T06:35:13;23.70;49.00
30288;DHT22;17103;48.316;11.558;2022-08-30T06:37:41;23.60;49.00
30288;DHT22;17103;48.316;11.558;2022-08-30T06:40:13;23.30;48.60
30288;DHT22;17103;48.316;11.558;2022-08-30T06:42:48;23.90;49.00
30288;DHT22;17103;48.316;11.558;2022-08-30T06:45:17;23.70;48.90
30288;DHT22;17103;48.316;11.558;2022-08-30T06:47:51;24.00;48.90
30288;DHT22;17103;48.316;11.558;2022-08-30T06:50:27;24.00;48.90
30288;DHT22;17103;48.316;11.558;2022-08-30T06:53:04;24.00;48.90
30288;DHT22;17103;48.316;11.558;2022-08-30T06:55:33;24.00;48.90
30288;DHT22;17103;48.316;11.558;2022-08-30T06:58:06;24.00;48.80
30288;DHT22;17103;48.316;11.558;2022-08-30T07:00:32;24.10;49.10
30288;DHT22;17103;48.316;11.558;2022-08-30T07:03:00;24.10;48.90
30288;DHT22;17103;48.316;11.558;2022-08-30T07:05:30;24.20;49.10
30288;DHT22;17103;48.316;11.558;2022-08-30T07:08:12;24.30;49.20
30288;DHT22;17103;48.316;11.558;2022-08-30T07:10:43;24.30;49.10
30288;DHT22;17103;48.316;11.558;2022-08-30T07:13:12;24.50;49.10
30288;DHT22;17103;48.316;11.558;2022-08-30T07:15:46;24.40;49.00
30288;DHT22;17103;48.316;11.558;2022-08-30T07:18:15;24.50;49.20
30288;DHT22;17103;48.316;11.558;2022-08-30T07:21:07;24.50;48.90
30288;DHT22;17103;48.316;11.558;2022-08-30T07:23:37;24.60;49.40
30288;DHT22;17103;48.316;11.558;2022-08-30T07:26:05;24.60;49.00
30288;DHT22;17103;48.316;11.558;2022-08-30T07:28:36;24.70;49.10
30288;DHT22;17103;48.316;11.558;2022-08-30T07:31:15;24.70;49.20
30288;DHT22;17103;48.316;11.558;2022-08-30T07:33:54;24.80;49.50
30288;DHT22;17103;48.316;11.558;2022-08-30T07:36:39;25.20;49.30
30288;DHT22;17103;48.316;11.558;2022-08-30T07:39:18;25.00;49.50
30288;DHT22;17103;48.316;11.558;2022-08-30T07:44:59;25.50;49.80
30288;DHT22;17103;48.316;11.558;2022-08-30T07:47:46;25.20;48.90
30288;DHT22;17103;48.316;11.558;2022-08-30T07:50:16;25.20;49.30
30288;DHT22;17103;48.316;11.558;2022-08-30T07:52:50;25.70;49.10
30288;DHT22;17103;48.316;11.558;2022-08-30T07:55:19;25.40;48.90
30288;DHT22;17103;48.316;11.558;2022-08-30T07:57:57;25.40;48.60
30288;DHT22;17103;48.316;11.558;2022-08-30T08:00:50;25.80;48.80
30288;DHT22;17103;48.316;11.558;2022-08-30T08:03:24;25.50;48.60
30288;DHT22;17103;48.316;11.558;2022-08-30T08:06:04;25.70;48.50
30288;DHT22;17103;48.316;11.558;2022-08-30T08:08:42;26.10;48.80
30288;DHT22;17103;48.316;11.558;2022-08-30T08:11:24;25.90;49.20
30288;DHT22;17103;48.316;11.558;2022-08-30T08:13:59;25.40;48.50
30288;DHT22;17103;48.316;11.558;2022-08-30T08:16:33;26.00;48.70
30288;DHT22;17103;48.316;11.558;2022-08-30T08:19:05;26.10;48.30
30288;DHT22;17103;48.316;11.558;2022-08-30T08:21:37;26.20;47.80
30288;DHT22;17103;48.316;11.558;2022-08-30T08:24:11;26.30;48.50
30288;DHT22;17103;48.316;11.558;2022-08-30T08:26:41;26.30;48.40
30288;DHT22;17103;48.316;11.558;2022-08-30T08:31:52;26.50;48.30
30288;DHT22;17103;48.316;11.558;2022-08-30T08:34:26;26.30;48.00
30288;DHT22;17103;48.316;11.558;2022-08-30T08:36:56;26.70;48.40
30288;DHT22;17103;48.316;11.558;2022-08-30T08:39:22;26.60;48.00
30288;DHT22;17103;48.316;11.558;2022-08-30T08:42:19;26.80;48.30
30288;DHT22;17103;48.316;11.558;2022-08-30T08:45:12;26.90;47.70
30288;DHT22;17103;48.316;11.558;2022-08-30T08:50:52;27.10;47.80
30288;DHT22;17103;48.316;11.558;2022-08-30T08:56:28;27.20;47.60
30288;DHT22;17103;48.316;11.558;2022-08-30T08:59:00;27.70;47.90
30288;DHT22;17103;48.316;11.558;2022-08-30T09:01:32;27.40;47.40
30288;DHT22;17103;48.316;11.558;2022-08-30T09:04:25;27.40;47.30
30288;DHT22;17103;48.316;11.558;2022-08-30T09:09:58;27.60;46.90
30288;DHT22;17103;48.316;11.558;2022-08-30T09:12:30;27.50;46.90
30288;DHT22;17103;48.316;11.558;2022-08-30T09:15:33;27.70;47.10
30288;DHT22;17103;48.316;11.558;2022-08-30T09:18:44;27.80;46.70
30288;DHT22;17103;48.316;11.558;2022-08-30T09:21:22;27.90;46.70
30288;DHT22;17103;48.316;11.558;2022-08-30T09:24:09;27.90;46.30
30288;DHT22;17103;48.316;11.558;2022-08-30T09:26:48;27.90;46.00
30288;DHT22;17103;48.316;11.558;2022-08-30T09:29:26;28.10;45.60
30288;DHT22;17103;48.316;11.558;2022-08-30T09:35:48;28.20;45.20
30288;DHT22;17103;48.316;11.558;2022-08-30T09:38:31;28.30;44.50
30288;DHT22;17103;48.316;11.558;2022-08-30T09:41:25;28.40;44.10
30288;DHT22;17103;48.316;11.558;2022-08-30T09:44:14;28.70;44.80
30288;DHT22;17103;48.316;11.558;2022-08-30T09:46:56;28.50;44.10
30288;DHT22;17103;48.316;11.558;2022-08-30T09:49:41;28.60;43.60
30288;DHT22;17103;48.316;11.558;2022-08-30T09:52:44;28.60;43.40
30288;DHT22;17103;48.316;11.558;2022-08-30T10:00:37;28.90;43.30
30288;DHT22;17103;48.316;11.558;2022-08-30T10:11:15;29.00;43.40
30288;DHT22;17103;48.316;11.558;2022-08-30T10:14:02;29.10;43.60
30288;DHT22;17103;48.316;11.558;2022-08-30T10:21:47;29.30;42.70
30288;DHT22;17103;48.316;11.558;2022-08-30T10:24:25;29.40;42.90
30288;DHT22;17103;48.316;11.558;2022-08-30T10:26:56;29.50;42.80
30288;DHT22;17103;48.316;11.558;2022-08-30T10:30:00;29.50;43.00
30288;DHT22;17103;48.316;11.558;2022-08-30T10:32:32;29.60;41.80
30288;DHT22;17103;48.316;11.558;2022-08-30T10:35:07;29.70;42.80
30288;DHT22;17103;48.316;11.558;2022-08-30T10:37:40;29.70;43.00
30288;DHT22;17103;48.316;11.558;2022-08-30T10:43:28;29.90;41.90
30288;DHT22;17103;48.316;11.558;2022-08-30T10:46:00;30.00;41.20
30288;DHT22;17103;48.316;11.558;2022-08-30T10:48:36;30.00;40.80
30288;DHT22;17103;48.316;11.558;2022-08-30T10:51:08;30.10;40.50
30288;DHT22;17103;48.316;11.558;2022-08-30T10:53:46;30.10;40.00
30288;DHT22;17103;48.316;11.558;2022-08-30T10:56:18;30.10;40.40
30288;DHT22;17103;48.316;11.558;2022-08-30T10:58:46;30.20;40.60
30288;DHT22;17103;48.316;11.558;2022-08-30T11:10:17;30.40;40.00
30288;DHT22;17103;48.316;11.558;2022-08-30T11:13:03;30.40;40.50
30288;DHT22;17103;48.316;11.558;2022-08-30T11:15:34;30.50;40.20
30288;DHT22;17103;48.316;11.558;2022-08-30T11:18:14;30.50;39.90
30288;DHT22;17103;48.316;11.558;2022-08-30T11:24:03;30.60;39.30
30288;DHT22;17103;48.316;11.558;2022-08-30T11:29:35;30.70;39.70
30288;DHT22;17103;48.316;11.558;2022-08-30T11:34:57;30.70;39.10
30288;DHT22;17103;48.316;11.558;2022-08-30T11:42:51;30.90;39.30
30288;DHT22;17103;48.316;11.558;2022-08-30T11:47:52;31.00;39.10
30288;DHT22;17103;48.316;11.558;2022-08-30T11:56:10;31.00;39.10
30288;DHT22;17103;48.316;11.558;2022-08-30T11:59:01;31.10;38.50
30288;DHT22;17103;48.316;11.558;2022-08-30T12:01:35;31.10;38.70
30288;DHT22;17103;48.316;11.558;2022-08-30T12:07:00;31.30;39.40
30288;DHT22;17103;48.316;11.558;2022-08-30T12:12:09;31.50;39.10
30288;DHT22;17103;48.316;11.558;2022-08-30T12:14:39;31.50;38.50
30288;DHT22;17103;48.316;11.558;2022-08-30T12:20:48;31.60;38.90
30288;DHT22;17103;48.316;11.558;2022-08-30T12:23:19;31.70;38.90
30288;DHT22;17103;48.316;11.558;2022-08-30T12:25:46;31.80;37.10
30288;DHT22;17103;48.316;11.558;2022-08-30T12:28:16;31.90;37.40
30288;DHT22;17103;48.316;11.558;2022-08-30T12:30:45;31.90;37.10
30288;DHT22;17103;48.316;11.558;2022-08-30T12:33:13;32.00;38.50
30288;DHT22;17103;48.316;11.558;2022-08-30T12:35:41;32.10;38.00
30288;DHT22;17103;48.316;11.558;2022-08-30T12:38:17;32.10;37.60
30288;DHT22;17103;48.316;11.558;2022-08-30T12:40:58;32.10;37.10
30288;DHT22;17103;48.316;11.558;2022-08-30T12:43:31;32.20;36.30
30288;DHT22;17103;48.316;11.558;2022-08-30T12:46:01;32.30;36.20
30288;DHT22;17103;48.316;11.558;2022-08-30T12:48:33;32.40;36.50
30288;DHT22;17103;48.316;11.558;2022-08-30T12:50:59;32.50;34.40
30288;DHT22;17103;48.316;11.558;2022-08-30T12:53:33;32.60;35.80
30288;DHT22;17103;48.316;11.558;2022-08-30T12:56:09;32.60;36.20
30288;DHT22;17103;48.316;11.558;2022-08-30T12:58:56;32.60;36.40
30288;DHT22;17103;48.316;11.558;2022-08-30T13:01:27;32.70;37.50
30288;DHT22;17103;48.316;11.558;2022-08-30T13:06:58;32.90;36.70
30288;DHT22;17103;48.316;11.558;2022-08-30T13:09:40;33.10;36.10
30288;DHT22;17103;48.316;11.558;2022-08-30T13:12:26;33.10;35.20
30288;DHT22;17103;48.316;11.558;2022-08-30T13:14:52;33.30;35.30
30288;DHT22;17103;48.316;11.558;2022-08-30T13:19:56;33.50;34.90
30288;DHT22;17103;48.316;11.558;2022-08-30T13:22:28;33.60;36.00
30288;DHT22;17103;48.316;11.558;2022-08-30T13:24:54;33.60;35.00
30288;DHT22;17103;48.316;11.558;2022-08-30T13:27:22;33.80;35.80
30288;DHT22;17103;48.316;11.558;2022-08-30T13:29:47;33.80;33.90
30288;DHT22;17103;48.316;11.558;2022-08-30T13:32:13;33.90;34.40
30288;DHT22;17103;48.316;11.558;2022-08-30T13:34:40;34.00;34.90
30288;DHT22;17103;48.316;11.558;2022-08-30T13:37:08;34.00;34.90
30288;DHT22;17103;48.316;11.558;2022-08-30T13:39:35;34.10;34.50
30288;DHT22;17103;48.316;11.558;2022-08-30T13:42:00;34.20;35.40
30288;DHT22;17103;48.316;11.558;2022-08-30T13:44:26;34.20;34.10
30288;DHT22;17103;48.316;11.558;2022-08-30T13:46:53;34.30;34.00
30288;DHT22;17103;48.316;11.558;2022-08-30T13:49:33;34.30;33.50
30288;DHT22;17103;48.316;11.558;2022-08-30T13:52:06;34.30;33.30
30288;DHT22;17103;48.316;11.558;2022-08-30T13:54:33;34.30;33.50
30288;DHT22;17103;48.316;11.558;2022-08-30T13:56:58;34.30;33.30
30288;DHT22;17103;48.316;11.558;2022-08-30T13:59:46;34.30;33.20
30288;DHT22;17103;48.316;11.558;2022-08-30T14:02:15;34.40;32.40
30288;DHT22;17103;48.316;11.558;2022-08-30T14:04:48;34.30;32.70
30288;DHT22;17103;48.316;11.558;2022-08-30T14:07:14;34.30;32.70
30288;DHT22;17103;48.316;11.558;2022-08-30T14:09:40;34.30;32.60
30288;DHT22;17103;48.316;11.558;2022-08-30T14:12:13;34.30;33.00
30288;DHT22;17103;48.316;11.558;2022-08-30T14:14:39;34.40;32.80
30288;DHT22;17103;48.316;11.558;2022-08-30T14:17:05;34.40;32.60
30288;DHT22;17103;48.316;11.558;2022-08-30T14:19:31;34.40;32.90
30288;DHT22;17103;48.316;11.558;2022-08-30T14:22:01;34.60;33.00
30288;DHT22;17103;48.316;11.558;2022-08-30T14:24:28;34.40;33.00
30288;DHT22;17103;48.316;11.558;2022-08-30T14:26:56;34.50;32.70
30288;DHT22;17103;48.316;11.558;2022-08-30T14:29:34;34.50;32.50
30288;DHT22;17103;48.316;11.558;2022-08-30T14:32:28;34.60;32.40
30288;DHT22;17103;48.316;11.558;2022-08-30T14:34:58;34.70;32.40
30288;DHT22;17103;48.316;11.558;2022-08-30T14:37:25;34.70;32.30
30288;DHT22;17103;48.316;11.558;2022-08-30T14:39:53;34.70;32.40
30288;DHT22;17103;48.316;11.558;2022-08-30T14:42:22;34.80;32.20
30288;DHT22;17103;48.316;11.558;2022-08-30T14:44:54;34.80;32.30
30288;DHT22;17103;48.316;11.558;2022-08-30T14:47:19;34.90;32.50
30288;DHT22;17103;48.316;11.558;2022-08-30T14:49:46;34.90;32.70
30288;DHT22;17103;48.316;11.558;2022-08-30T14:52:24;35.20;32.50
30288;DHT22;17103;48.316;11.558;2022-08-30T14:54:54;35.10;32.60
30288;DHT22;17103;48.316;11.558;2022-08-30T14:57:24;35.20;31.90
30288;DHT22;17103;48.316;11.558;2022-08-30T14:59:51;35.20;31.80
30288;DHT22;17103;48.316;11.558;2022-08-30T15:02:28;35.30;31.80
30288;DHT22;17103;48.316;11.558;2022-08-30T15:04:59;35.40;32.50
30288;DHT22;17103;48.316;11.558;2022-08-30T15:07:31;35.50;32.60
30288;DHT22;17103;48.316;11.558;2022-08-30T15:09:57;35.60;32.00
30288;DHT22;17103;48.316;11.558;2022-08-30T15:12:27;35.60;31.90
30288;DHT22;17103;48.316;11.558;2022-08-30T15:14:52;35.80;31.40
30288;DHT22;17103;48.316;11.558;2022-08-30T15:17:19;35.90;31.40
30288;DHT22;17103;48.316;11.558;2022-08-30T15:19:48;35.90;32.60
30288;DHT22;17103;48.316;11.558;2022-08-30T15:22:24;36.00;32.10
30288;DHT22;17103;48.316;11.558;2022-08-30T15:24:49;36.20;30.90
30288;DHT22;17103;48.316;11.558;2022-08-30T15:27:22;36.30;32.40
30288;DHT22;17103;48.316;11.558;2022-08-30T15:30:05;36.40;30.50
30288;DHT22;17103;48.316;11.558;2022-08-30T15:32:31;36.60;30.70
30288;DHT22;17103;48.316;11.558;2022-08-30T15:35:08;36.70;30.80
30288;DHT22;17103;48.316;11.558;2022-08-30T15:37:44;36.80;30.50
30288;DHT22;17103;48.316;11.558;2022-08-30T15:40:17;37.00;30.00
30288;DHT22;17103;48.316;11.558;2022-08-30T15:43:04;37.10;30.80
30288;DHT22;17103;48.316;11.558;2022-08-30T15:49:04;37.50;30.00
30288;DHT22;17103;48.316;11.558;2022-08-30T15:51:35;37.60;30.00
30288;DHT22;17103;48.316;11.558;2022-08-30T15:54:06;37.70;29.30
30288;DHT22;17103;48.316;11.558;2022-08-30T15:56:36;37.90;29.50
30288;DHT22;17103;48.316;11.558;2022-08-30T15:59:02;38.10;29.50
30288;DHT22;17103;48.316;11.558;2022-08-30T16:01:27;38.20;29.80
30288;DHT22;17103;48.316;11.558;2022-08-30T16:03:54;38.30;29.70
30288;DHT22;17103;48.316;11.558;2022-08-30T16:06:25;38.50;29.00
30288;DHT22;17103;48.316;11.558;2022-08-30T16:08:51;38.70;28.80
30288;DHT22;17103;48.316;11.558;2022-08-30T16:11:23;38.80;29.00
30288;DHT22;17103;48.316;11.558;2022-08-30T16:13:54;39.00;28.50
30288;DHT22;17103;48.316;11.558;2022-08-30T16:16:27;39.10;28.60
30288;DHT22;17103;48.316;11.558;2022-08-30T16:18:59;39.20;28.40
30288;DHT22;17103;48.316;11.558;2022-08-30T16:21:34;39.40;28.60
30288;DHT22;17103;48.316;11.558;2022-08-30T16:24:17;39.50;30.00
30288;DHT22;17103;48.316;11.558;2022-08-30T16:26:44;39.70;28.20
30288;DHT22;17103;48.316;11.558;2022-08-30T16:29:12;39.80;28.40
30288;DHT22;17103;48.316;11.558;2022-08-30T16:31:38;39.90;27.80
30288;DHT22;17103;48.316;11.558;2022-08-30T16:34:06;40.00;27.80
30288;DHT22;17103;48.316;11.558;2022-08-30T16:36:34;40.10;27.50
30288;DHT22;17103;48.316;11.558;2022-08-30T16:45:23;40.40;27.20
30288;DHT22;17103;48.316;11.558;2022-08-30T16:48:01;40.40;26.80
30288;DHT22;17103;48.316;11.558;2022-08-30T16:50:27;40.30;26.50
30288;DHT22;17103;48.316;11.558;2022-08-30T16:53:02;40.50;26.80
30288;DHT22;17103;48.316;11.558;2022-08-30T16:55:50;40.40;26.40
30288;DHT22;17103;48.316;11.558;2022-08-30T16:58:25;40.30;26.30
30288;DHT22;17103;48.316;11.558;2022-08-30T17:01:06;40.20;26.10
30288;DHT22;17103;48.316;11.558;2022-08-30T17:03:48;40.10;25.90
30288;DHT22;17103;48.316;11.558;2022-08-30T17:06:22;39.90;26.00
30288;DHT22;17103;48.316;11.558;2022-08-30T17:09:07;39.90;26.40
30288;DHT22;17103;48.316;11.558;2022-08-30T17:11:43;39.60;26.30
30288;DHT22;17103;48.316;11.558;2022-08-30T17:14:24;39.40;26.30
30288;DHT22;17103;48.316;11.558;2022-08-30T17:16:59;39.20;26.00
30288;DHT22;17103;48.316;11.558;2022-08-30T17:19:28;38.90;26.10
30288;DHT22;17103;48.316;11.558;2022-08-30T17:21:54;38.60;26.10
30288;DHT22;17103;48.316;11.558;2022-08-30T17:24:26;38.50;26.40
30288;DHT22;17103;48.316;11.558;2022-08-30T17:26:51;38.10;26.40
30288;DHT22;17103;48.316;11.558;2022-08-30T17:29:58;37.90;26.60
30288;DHT22;17103;48.316;11.558;2022-08-30T17:32:49;37.60;26.70
30288;DHT22;17103;48.316;11.558;2022-08-30T17:35:30;37.30;26.80
30288;DHT22;17103;48.316;11.558;2022-08-30T17:38:17;37.00;27.00
30288;DHT22;17103;48.316;11.558;2022-08-30T17:40:50;36.80;27.20
30288;DHT22;17103;48.316;11.558;2022-08-30T17:43:16;36.60;27.50
30288;DHT22;17103;48.316;11.558;2022-08-30T17:46:21;36.30;27.60
30288;DHT22;17103;48.316;11.558;2022-08-30T17:56:09;35.40;27.90